Time;durP1;ratioP1;P1;durP2;ratioP2;P2;SDS_P1;SDS_P2;PMS_P1;PMS_P2;Temp;Humidity;BMP_temperature;BMP_pressure;BME280_temperature;BME280_humidity;BME280_pressure;Samples;Min_cycle;Max_cycle;Signal;HPM_P1;HPM_P2
2022/06/22 04:01:15;;;;;;;10.80;9.23;;;21.50;99.90;;;;;;5630672;23;20513;-65
2022/06/22 04:03:43;;;;;;;8.30;7.60;;;21.50;99.90;;;;;;5013906;28;20461;-65
2022/06/22 04:06:18;;;;;;;9.67;7.80;;;21.60;99.90;;;;;;5013688;28;20457;-65
2022/06/22 04:08:45;;;;;;;7.67;7.07;;;21.70;99.90;;;;;;5014620;28;20786;-65
2022/06/22 04:11:24;;;;;;;9.60;7.83;;;21.80;99.90;;;;;;5014380;28;20979;-65
2022/06/22 04:13:58;;;;;;;9.80;8.00;;;21.80;99.90;;;;;;5016601;28;20776;-66
2022/06/22 04:16:31;;;;;;;7.67;7.00;;;21.90;99.90;;;;;;5015444;28;20519;-64
2022/06/22 04:19:01;;;;;;;7.83;7.13;;;22.00;99.90;;;;;;5014584;28;20441;-66
2022/06/22 04:21:31;;;;;;;7.50;6.90;;;22.10;99.90;;;;;;5013626;28;20476;-65
2022/06/22 04:24:02;;;;;;;8.03;7.37;;;22.20;99.90;;;;;;5013805;28;20803;-66
2022/06/22 04:26:33;;;;;;;7.10;6.50;;;22.20;99.90;;;;;;5013552;28;20438;-65
2022/06/22 04:29:04;;;;;;;8.03;7.33;;;22.30;99.90;;;;;;5014911;28;20441;-66
2022/06/22 04:31:36;;;;;;;7.60;6.80;;;22.30;99.90;;;;;;5017061;28;20472;-66
2022/06/22 04:34:07;;;;;;;7.77;7.20;;;22.30;99.90;;;;;;5017846;28;20779;-66
2022/06/22 04:36:38;;;;;;;8.50;7.70;;;22.30;99.90;;;;;;5017082;28;20472;-66
2022/06/22 04:39:14;;;;;;;7.63;7.03;;;22.40;99.90;;;;;;5017193;28;20801;-65
2022/06/22 04:41:42;;;;;;;7.50;6.80;;;22.40;99.90;;;;;;5016591;28;21001;-66
2022/06/22 04:44:15;;;;;;;6.87;6.27;;;22.50;99.90;;;;;;5016911;28;20452;-66
2022/06/22 04:46:45;;;;;;;7.63;6.93;;;22.50;99.90;;;;;;5016922;28;20506;-66
2022/06/22 04:49:19;;;;;;;7.77;7.10;;;22.60;99.90;;;;;;5016660;28;20850;-65
2022/06/22 04:51:51;;;;;;;8.30;7.60;;;22.60;99.90;;;;;;5016311;28;20476;-66
2022/06/22 04:54:24;;;;;;;7.40;6.73;;;22.60;99.90;;;;;;5016571;28;20950;-66
2022/06/22 04:56:54;;;;;;;11.57;7.03;;;22.60;99.90;;;;;;5016285;28;21025;-65
2022/06/22 04:59:22;;;;;;;7.60;6.80;;;22.70;99.90;;;;;;5016460;28;20460;-66
2022/06/22 05:01:55;;;;;;;7.40;6.80;;;22.80;99.90;;;;;;5016106;28;20507;-67
2022/06/22 05:04:25;;;;;;;8.40;7.70;;;22.90;99.90;;;;;;5016508;28;20448;-65
2022/06/22 05:06:59;;;;;;;7.70;7.17;;;22.90;99.90;;;;;;5016512;28;20459;-64
2022/06/22 05:09:32;;;;;;;11.23;7.90;;;23.00;99.90;;;;;;5016583;28;20436;-64
2022/06/22 05:12:01;;;;;;;10.57;8.00;;;23.00;99.90;;;;;;5016399;28;20560;-65
2022/06/22 05:14:32;;;;;;;8.50;7.00;;;22.90;99.90;;;;;;5015966;28;20457;-65
2022/06/22 05:17:03;;;;;;;6.40;5.80;;;23.00;99.90;;;;;;5016384;28;20461;-64
2022/06/22 05:19:37;;;;;;;7.53;6.83;;;23.10;99.90;;;;;;5015877;28;20437;-65
2022/06/22 05:22:12;;;;;;;7.20;6.67;;;23.20;99.90;;;;;;5016296;28;20496;-65
2022/06/22 05:24:43;;;;;;;7.27;6.67;;;23.30;99.90;;;;;;5016161;28;20912;-64
2022/06/22 05:27:13;;;;;;;8.00;7.40;;;23.30;99.90;;;;;;5016333;28;20444;-64
2022/06/22 05:29:45;;;;;;;7.33;6.73;;;23.40;99.90;;;;;;5015904;28;20541;-66
2022/06/22 05:32:16;;;;;;;7.47;6.77;;;23.40;99.90;;;;;;5016137;28;20473;-67
2022/06/22 05:34:45;;;;;;;9.03;6.40;;;23.50;99.90;;;;;;5015878;28;20450;-66
2022/06/22 05:37:16;;;;;;;12.33;7.13;;;23.60;99.90;;;;;;5016125;28;20477;-65
2022/06/22 05:39:44;;;;;;;8.97;6.43;;;23.60;99.90;;;;;;5015567;28;20445;-66
2022/06/22 05:42:14;;;;;;;10.90;7.20;;;23.60;99.90;;;;;;5015513;28;20485;-66
2022/06/22 05:44:41;;;;;;;7.97;6.47;;;23.70;99.90;;;;;;5017011;28;20867;-66
2022/06/22 05:47:17;;;;;;;7.63;6.83;;;23.80;99.90;;;;;;5015411;28;20456;-66
2022/06/22 05:49:47;;;;;;;6.93;6.33;;;23.90;99.90;;;;;;5015737;28;20468;-66
2022/06/22 05:52:18;;;;;;;8.20;7.10;;;23.80;99.90;;;;;;5015563;28;20480;-65
2022/06/22 05:54:50;;;;;;;7.50;6.90;;;24.00;99.90;;;;;;5015545;28;20445;-66
2022/06/22 05:57:26;;;;;;;8.00;7.33;;;24.10;99.90;;;;;;5015495;28;20465;-66
2022/06/22 05:59:56;;;;;;;7.80;7.00;;;24.20;99.90;;;;;;5015529;28;20850;-66
2022/06/22 06:02:32;;;;;;;8.20;6.80;;;24.40;99.90;;;;;;5027215;28;20488;-66
2022/06/22 06:05:05;;;;;;;8.53;7.60;;;24.50;99.90;;;;;;5020609;28;20486;-65
2022/06/22 06:07:36;;;;;;;9.63;7.00;;;24.60;99.90;;;;;;5015724;28;20441;-65
2022/06/22 06:10:07;;;;;;;8.10;7.30;;;24.50;99.90;;;;;;5015223;28;20441;-65
2022/06/22 06:12:37;;;;;;;6.50;5.90;;;24.50;99.90;;;;;;5015172;28;20480;-66
2022/06/22 06:15:06;;;;;;;10.83;6.53;;;24.60;99.90;;;;;;5015322;28;20441;-66
2022/06/22 06:17:38;;;;;;;7.67;6.70;;;24.60;99.90;;;;;;5015291;28;20480;-65
2022/06/22 06:20:08;;;;;;;7.90;7.10;;;24.60;99.90;;;;;;5015236;28;20444;-65
2022/06/22 06:22:36;;;;;;;7.77;6.83;;;24.60;99.90;;;;;;5016544;28;20950;-65
2022/06/22 06:27:57;;;;;;;8.87;7.30;;;24.60;99.90;;;;;;5015111;28;20974;-65
2022/06/22 06:30:30;;;;;;;6.87;6.40;;;24.60;99.90;;;;;;5014804;28;20496;-65
2022/06/22 06:33:05;;;;;;;7.40;6.87;;;24.70;99.90;;;;;;5014824;28;20437;-65
2022/06/22 06:35:36;;;;;;;8.20;7.40;;;24.80;99.90;;;;;;5015319;28;20468;-65
2022/06/22 06:38:16;;;;;;;9.87;8.80;;;24.80;99.90;;;;;;5015174;28;20441;-65
2022/06/22 06:40:49;;;;;;;11.33;7.57;;;24.80;99.90;;;;;;5015328;28;20473;-65
2022/06/22 06:43:36;;;;;;;11.30;8.10;;;24.80;99.90;;;;;;5014741;28;20527;-65
2022/06/22 06:46:05;;;;;;;7.47;6.70;;;24.90;99.90;;;;;;5015304;28;20443;-65
2022/06/22 06:48:35;;;;;;;7.50;6.63;;;24.90;99.90;;;;;;5014713;28;20456;-65
2022/06/22 06:51:05;;;;;;;12.77;6.47;;;25.00;99.90;;;;;;5015400;28;20465;-65
2022/06/22 06:53:39;;;;;;;6.93;6.20;;;25.00;99.90;;;;;;5015351;28;20461;-64
2022/06/22 06:56:15;;;;;;;10.07;7.20;;;25.20;99.90;;;;;;5014683;28;20460;-64
2022/06/22 06:58:46;;;;;;;6.53;5.90;;;25.20;99.90;;;;;;5014527;28;20498;-64
2022/06/22 07:01:19;;;;;;;6.50;5.90;;;25.30;99.90;;;;;;5014206;28;20485;-64
2022/06/22 07:03:49;;;;;;;7.97;6.67;;;25.30;99.90;;;;;;5015421;28;20771;-65
2022/06/22 07:06:15;;;;;;;6.30;5.77;;;25.30;99.90;;;;;;5014544;28;20449;-64
2022/06/22 07:08:46;;;;;;;13.57;7.67;;;25.30;99.90;;;;;;5014474;28;20464;-64
2022/06/22 07:11:19;;;;;;;8.37;6.73;;;25.30;99.90;;;;;;5014816;28;20473;-64
2022/06/22 07:13:49;;;;;;;8.67;6.10;;;25.20;99.90;;;;;;5014363;28;20441;-65
2022/06/22 07:16:27;;;;;;;8.27;6.80;;;25.20;99.90;;;;;;5014274;28;20464;-64
2022/06/22 07:19:00;;;;;;;6.90;6.33;;;25.00;99.90;;;;;;5014356;28;20460;-64
2022/06/22 07:21:32;;;;;;;6.90;6.20;;;24.90;99.90;;;;;;5014131;28;20476;-64
2022/06/22 07:24:03;;;;;;;6.13;5.50;;;24.90;99.90;;;;;;5014356;28;20437;-64
2022/06/22 07:26:42;;;;;;;7.03;6.33;;;24.90;99.90;;;;;;5015259;28;20437;-65
2022/06/22 07:29:15;;;;;;;6.40;5.80;;;24.90;99.90;;;;;;5013897;28;20437;-64
2022/06/22 07:31:48;;;;;;;6.67;6.17;;;24.90;99.90;;;;;;5015534;28;20500;-65
2022/06/22 07:34:20;;;;;;;7.47;6.50;;;24.90;99.90;;;;;;5018061;28;20804;-65
2022/06/22 07:36:51;;;;;;;12.13;7.27;;;24.90;99.90;;;;;;5015347;28;21063;-65
2022/06/22 07:39:25;;;;;;;8.00;7.17;;;24.90;99.90;;;;;;5015012;28;20866;-65
2022/06/22 07:41:52;;;;;;;11.17;7.57;;;24.80;99.90;;;;;;5014212;28;20476;-65
2022/06/22 07:44:23;;;;;;;9.87;7.70;;;24.60;99.90;;;;;;5014154;28;20514;-65
2022/06/22 07:46:54;;;;;;;8.47;7.63;;;24.60;99.90;;;;;;5014289;28;20433;-65
2022/06/22 07:49:27;;;;;;;8.50;7.80;;;24.50;99.90;;;;;;5014242;28;20448;-66
2022/06/22 07:51:55;;;;;;;13.37;7.20;;;24.40;99.90;;;;;;5014099;28;20832;-66
2022/06/22 07:54:29;;;;;;;8.03;7.30;;;24.40;99.90;;;;;;5014072;28;20452;-65
2022/06/22 07:57:05;;;;;;;9.57;7.07;;;24.50;99.90;;;;;;5013602;28;20909;-65
2022/06/22 07:59:38;;;;;;;8.70;8.00;;;24.30;99.90;;;;;;5014481;28;20441;-65
2022/06/22 08:02:14;;;;;;;11.37;7.43;;;24.40;99.90;;;;;;5013708;28;20492;-65
2022/06/22 08:04:47;;;;;;;7.97;7.10;;;24.40;99.90;;;;;;5016671;28;20437;-64
2022/06/22 08:07:18;;;;;;;10.27;7.40;;;24.30;99.90;;;;;;5017467;28;20840;-65
2022/06/22 08:09:54;;;;;;;8.97;8.00;;;24.30;99.90;;;;;;5017991;28;20441;-64
2022/06/22 08:12:25;;;;;;;8.50;7.70;;;24.30;99.90;;;;;;5017845;28;20472;-64
2022/06/22 08:14:53;;;;;;;9.63;8.70;;;24.20;99.90;;;;;;5017780;28;20448;-65
2022/06/22 08:17:24;;;;;;;8.43;7.83;;;24.20;99.90;;;;;;5017738;28;20480;-65
2022/06/22 08:19:52;;;;;;;8.83;8.00;;;24.00;99.90;;;;;;5017776;28;20797;-64
2022/06/22 08:22:19;;;;;;;9.23;8.43;;;24.00;99.90;;;;;;5017862;28;20839;-65
2022/06/22 08:24:50;;;;;;;8.60;7.80;;;23.90;99.90;;;;;;5018041;28;20503;-65
2022/06/22 08:27:19;;;;;;;7.43;6.83;;;23.90;99.90;;;;;;5017540;28;20442;-66
2022/06/22 08:29:48;;;;;;;9.30;7.63;;;23.90;99.90;;;;;;5017462;28;20816;-66
2022/06/22 08:32:22;;;;;;;11.13;6.93;;;23.90;99.90;;;;;;5017305;28;20835;-63
2022/06/22 08:34:54;;;;;;;8.50;6.73;;;23.90;99.90;;;;;;5016983;28;20904;-64
2022/06/22 08:37:28;;;;;;;10.70;7.20;;;23.90;99.90;;;;;;5017115;28;20464;-63
2022/06/22 08:40:00;;;;;;;8.27;7.50;;;23.90;99.90;;;;;;5017384;28;20440;-63
2022/06/22 08:42:38;;;;;;;11.17;7.40;;;23.80;99.90;;;;;;5017078;28;20472;-64
2022/06/22 08:45:26;;;;;;;8.13;7.00;;;23.80;99.90;;;;;;5017085;28;20437;-64
2022/06/22 08:48:16;;;;;;;8.20;7.40;;;23.80;99.90;;;;;;5017063;28;20444;-63
2022/06/22 08:51:19;;;;;;;8.37;7.33;;;23.80;99.90;;;;;;5016854;28;20473;-63
2022/06/22 08:54:09;;;;;;;7.73;7.03;;;23.90;99.90;;;;;;5016772;28;20457;-64
2022/06/22 08:56:45;;;;;;;8.13;7.43;;;23.80;99.90;;;;;;5016567;28;20967;-64
2022/06/22 08:59:33;;;;;;;8.80;8.00;;;23.70;99.90;;;;;;5016909;28;20437;-64
2022/06/22 09:02:17;;;;;;;9.23;8.40;;;23.70;99.90;;;;;;5016776;28;20527;-66
2022/06/22 09:05:24;;;;;;;8.90;8.00;;;23.70;99.90;;;;;;5016931;28;20959;-66
2022/06/22 09:08:12;;;;;;;9.63;8.73;;;23.70;99.90;;;;;;5016739;28;20437;-67
2022/06/22 09:10:54;;;;;;;8.50;7.70;;;23.70;99.90;;;;;;5016531;28;20483;-65
2022/06/22 09:13:46;;;;;;;8.40;7.73;;;23.70;99.90;;;;;;5016642;28;20437;-64
2022/06/22 09:16:27;;;;;;;11.27;9.40;;;23.80;99.90;;;;;;5015004;28;20917;-64
2022/06/22 09:19:09;;;;;;;9.23;8.33;;;23.80;99.90;;;;;;5016329;28;20475;-64
2022/06/22 09:21:46;;;;;;;9.53;8.73;;;23.80;99.90;;;;;;5016450;28;20833;-64
2022/06/22 09:24:22;;;;;;;10.23;9.23;;;23.80;99.90;;;;;;5016062;28;20938;-64
2022/06/22 09:26:59;;;;;;;8.83;7.83;;;23.90;99.90;;;;;;5016428;28;20459;-65
2022/06/22 09:29:40;;;;;;;11.30;8.73;;;24.10;99.90;;;;;;5016221;28;20503;-66
2022/06/22 09:32:42;;;;;;;9.80;8.07;;;24.30;99.90;;;;;;5016062;28;20535;-66
2022/06/22 09:35:43;;;;;;;9.70;9.00;;;24.40;99.90;;;;;;4974603;28;20449;-66
2022/06/22 09:38:40;;;;;;;15.90;9.33;;;24.50;99.90;;;;;;5015793;28;20461;-66
2022/06/22 09:41:17;;;;;;;14.00;9.77;;;24.50;99.90;;;;;;5016150;28;20495;-66
2022/06/22 09:44:16;;;;;;;12.57;9.90;;;24.50;99.90;;;;;;5016236;28;20437;-64
2022/06/22 09:47:01;;;;;;;11.97;9.13;;;24.70;99.90;;;;;;5016187;28;20806;-64
2022/06/22 09:49:58;;;;;;;12.87;10.53;;;24.80;99.90;;;;;;5016045;28;20444;-65
2022/06/22 09:52:53;;;;;;;12.47;11.17;;;24.90;99.90;;;;;;5016142;28;20876;-66
2022/06/22 09:59:07;;;;;;;12.83;11.77;;;25.20;99.90;;;;;;5016001;28;20433;-68
2022/06/22 10:01:43;;;;;;;11.70;10.67;;;25.20;99.90;;;;;;5015728;28;20576;-64
2022/06/22 10:05:07;;;;;;;17.40;13.60;;;25.40;99.90;;;;;;5015821;28;20439;-66
2022/06/22 10:07:54;;;;;;;13.93;12.77;;;25.30;99.90;;;;;;5015730;28;20536;-66
2022/06/22 10:10:32;;;;;;;15.20;13.80;;;25.30;99.90;;;;;;5015818;28;20440;-65
2022/06/22 10:13:16;;;;;;;13.27;12.00;;;25.30;99.90;;;;;;5016440;28;20531;-65
2022/06/22 10:16:01;;;;;;;15.63;10.93;;;25.20;99.90;;;;;;5015250;28;20437;-66
2022/06/22 10:18:44;;;;;;;11.83;10.67;;;25.20;99.90;;;;;;5015819;28;20464;-65
2022/06/22 10:21:20;;;;;;;11.17;7.67;;;25.30;99.90;;;;;;5015363;28;20477;-68
2022/06/22 10:24:06;;;;;;;8.00;7.37;;;25.40;99.90;;;;;;5015574;28;20451;-67
2022/06/22 10:26:51;;;;;;;8.00;7.07;;;25.50;99.90;;;;;;5015249;28;20444;-66
2022/06/22 10:29:38;;;;;;;10.07;7.57;;;25.50;99.90;;;;;;5015614;28;20499;-66
2022/06/22 10:32:43;;;;;;;10.53;7.20;;;25.40;99.90;;;;;;5015378;28;20476;-65
2022/06/22 10:35:25;;;;;;;8.27;7.43;;;25.50;99.90;;;;;;5018591;28;20532;-66
2022/06/22 10:38:23;;;;;;;8.53;7.20;;;25.60;99.90;;;;;;5026081;28;20464;-66
2022/06/22 10:47:05;;;;;;;9.27;8.47;;;25.60;99.90;;;;;;5014925;28;20513;-66
2022/06/22 10:49:52;;;;;;;8.90;8.10;;;25.50;99.90;;;;;;5014799;28;20462;-63
2022/06/22 10:53:22;;;;;;;10.43;9.53;;;25.50;99.90;;;;;;5014334;28;20482;-64
2022/06/22 10:56:02;;;;;;;10.97;10.03;;;25.30;99.90;;;;;;4969575;28;20507;-65
2022/06/22 10:58:50;;;;;;;12.03;10.97;;;25.00;99.90;;;;;;5015229;28;20487;-64
2022/06/22 11:01:34;;;;;;;11.33;10.20;;;24.80;99.90;;;;;;5014379;28;20480;-65
2022/06/22 11:04:32;;;;;;;11.90;10.87;;;24.70;99.90;;;;;;5014339;28;20904;-65
2022/06/22 11:07:43;;;;;;;12.10;10.93;;;24.60;99.90;;;;;;5014436;28;20440;-65
2022/06/22 11:10:37;;;;;;;13.23;12.20;;;24.50;99.90;;;;;;5009720;28;20488;-65
2022/06/22 11:13:15;;;;;;;14.20;12.93;;;24.20;99.90;;;;;;5014206;28;20460;-64
2022/06/22 11:16:12;;;;;;;13.60;12.60;;;24.00;99.90;;;;;;5014391;28;20440;-65
2022/06/22 11:18:58;;;;;;;15.57;14.10;;;23.80;99.90;;;;;;5014100;28;20560;-65
2022/06/22 11:21:39;;;;;;;14.50;13.30;;;23.60;99.90;;;;;;5014010;28;20563;-66
2022/06/22 11:24:39;;;;;;;14.70;11.43;;;23.40;99.90;;;;;;5014256;28;20793;-65
2022/06/22 11:33:31;;;;;;;14.13;12.97;;;23.30;99.90;;;;;;5014109;28;20425;-66
2022/06/22 11:36:09;;;;;;;12.30;11.40;;;23.30;99.90;;;;;;5014062;28;20893;-66
2022/06/22 11:38:52;;;;;;;13.27;12.20;;;23.40;99.90;;;;;;5014722;28;20467;-66
2022/06/22 11:41:31;;;;;;;11.60;10.60;;;23.60;99.90;;;;;;5015734;28;20476;-66
2022/06/22 11:44:19;;;;;;;11.77;10.73;;;23.70;99.90;;;;;;5015181;28;20496;-66
2022/06/22 11:46:49;;;;;;;11.43;10.50;;;23.80;99.90;;;;;;5015106;28;20524;-65
2022/06/22 11:49:40;;;;;;;13.47;12.20;;;23.90;99.90;;;;;;5013823;28;20956;-65
2022/06/22 11:52:31;;;;;;;13.53;12.57;;;24.00;99.90;;;;;;5014743;28;20481;-65
2022/06/22 11:55:19;;;;;;;13.03;12.03;;;24.10;99.90;;;;;;5013727;28;20966;-65
2022/06/22 11:58:18;;;;;;;14.13;13.03;;;24.20;99.90;;;;;;5013669;28;20968;-65
2022/06/22 12:00:56;;;;;;;13.13;11.87;;;24.20;99.90;;;;;;5013649;28;20484;-65
2022/06/22 12:03:50;;;;;;;13.80;12.80;;;24.30;99.90;;;;;;5013429;28;20452;-65
2022/06/22 12:06:46;;;;;;;14.30;12.93;;;24.50;99.90;;;;;;5013796;28;20441;-65
2022/06/22 12:09:28;;;;;;;15.20;13.80;;;24.70;99.90;;;;;;5013450;28;20523;-65
2022/06/22 12:12:22;;;;;;;14.40;13.23;;;24.80;99.90;;;;;;5013407;28;20477;-65
2022/06/22 12:15:09;;;;;;;15.50;14.30;;;24.80;99.90;;;;;;5013707;28;20460;-65
2022/06/22 12:17:58;;;;;;;14.57;13.30;;;24.80;99.90;;;;;;5013679;28;20503;-65
2022/06/22 12:20:41;;;;;;;13.93;12.73;;;25.00;99.90;;;;;;5013891;28;20437;-66
2022/06/22 12:23:16;;;;;;;13.33;11.93;;;25.20;99.90;;;;;;5013762;28;20499;-65
2022/06/22 12:25:56;;;;;;;13.50;12.40;;;25.40;99.90;;;;;;5013391;28;20447;-67
2022/06/22 12:28:42;;;;;;;10.50;9.43;;;25.50;99.90;;;;;;5013881;28;20864;-64
2022/06/22 12:31:14;;;;;;;8.07;7.37;;;25.60;99.90;;;;;;5013163;28;20473;-64
2022/06/22 12:33:47;;;;;;;10.57;8.70;;;25.70;99.90;;;;;;5013738;28;20437;-65
2022/06/22 12:36:22;;;;;;;9.57;8.67;;;25.70;99.90;;;;;;5013749;28;20443;-66
2022/06/22 12:38:52;;;;;;;12.07;8.20;;;25.80;99.90;;;;;;5013536;28;20465;-66
2022/06/22 12:41:32;;;;;;;8.00;7.30;;;25.80;99.90;;;;;;5013594;28;20524;-66
2022/06/22 12:44:21;;;;;;;8.87;7.70;;;25.90;99.90;;;;;;5013393;28;20529;-66
2022/06/22 12:47:04;;;;;;;8.80;8.00;;;25.90;99.90;;;;;;5013066;28;20441;-66
2022/06/22 12:49:53;;;;;;;9.83;8.30;;;25.90;99.90;;;;;;5014272;28;20447;-67
2022/06/22 12:52:27;;;;;;;9.23;7.77;;;25.90;99.90;;;;;;5016950;28;21006;-65
2022/06/22 12:54:59;;;;;;;12.60;8.57;;;25.80;99.90;;;;;;5017058;28;20510;-65
2022/06/22 12:57:31;;;;;;;8.87;8.17;;;25.80;99.90;;;;;;5016865;28;20465;-65
2022/06/22 13:00:06;;;;;;;9.27;7.60;;;25.80;99.90;;;;;;5017127;28;20440;-65
2022/06/22 13:02:36;;;;;;;8.90;8.10;;;25.80;99.90;;;;;;5016654;28;20574;-66
2022/06/22 13:05:07;;;;;;;9.20;8.30;;;25.70;99.90;;;;;;5016349;28;20469;-66
2022/06/22 13:07:40;;;;;;;8.93;7.97;;;25.70;99.90;;;;;;5016244;28;20593;-65
2022/06/22 13:10:08;;;;;;;8.03;7.33;;;25.60;99.90;;;;;;5016440;28;20448;-65
2022/06/22 13:12:40;;;;;;;8.17;7.27;;;25.50;99.90;;;;;;5016570;28;20477;-65
2022/06/22 13:15:14;;;;;;;9.87;7.87;;;25.30;99.90;;;;;;5016164;28;20444;-66
2022/06/22 13:17:48;;;;;;;8.83;7.90;;;25.20;99.90;;;;;;5016176;28;20468;-66
2022/06/22 13:20:46;;;;;;;8.43;7.30;;;25.10;99.90;;;;;;5016942;28;20527;-66
2022/06/22 13:23:23;;;;;;;14.03;12.70;;;25.20;99.90;;;;;;5016693;28;20449;-65
2022/06/22 13:25:57;;;;;;;13.90;12.60;;;25.20;99.90;;;;;;5016847;28;20835;-67
2022/06/22 13:28:30;;;;;;;15.63;14.37;;;25.20;99.90;;;;;;5016517;28;20524;-65
2022/06/22 13:31:00;;;;;;;15.60;14.20;;;25.20;99.90;;;;;;5017489;28;20473;-65
2022/06/22 13:33:32;;;;;;;16.20;14.53;;;25.30;99.90;;;;;;5024274;28;20488;-64
2022/06/22 13:36:04;;;;;;;14.67;13.57;;;25.30;99.90;;;;;;5018318;28;20443;-64
2022/06/22 13:39:01;;;;;;;17.03;15.23;;;25.20;99.90;;;;;;5015820;28;20504;-63
2022/06/22 13:41:46;;;;;;;16.73;15.07;;;25.10;99.90;;;;;;5015950;28;20499;-63
2022/06/22 13:44:30;;;;;;;17.20;15.53;;;24.90;99.90;;;;;;5015786;28;20441;-63
2022/06/22 13:47:25;;;;;;;19.37;17.67;;;24.90;99.90;;;;;;5015548;28;20481;-63
2022/06/22 13:50:17;;;;;;;18.97;17.17;;;24.80;99.90;;;;;;5015794;28;20441;-63
2022/06/22 13:52:48;;;;;;;17.00;15.60;;;24.80;99.90;;;;;;5015914;28;20445;-63
2022/06/22 13:55:40;;;;;;;17.97;16.67;;;24.70;99.90;;;;;;5015437;28;20500;-63
2022/06/22 13:58:14;;;;;;;18.30;16.70;;;24.80;99.90;;;;;;5013055;28;20477;-63
2022/06/22 14:00:56;;;;;;;20.70;17.10;;;24.90;99.90;;;;;;5015016;28;20496;-63
2022/06/22 14:03:31;;;;;;;19.13;17.47;;;24.90;99.90;;;;;;5015196;28;20520;-63
2022/06/22 14:06:09;;;;;;;19.00;17.20;;;25.00;99.90;;;;;;5015469;28;20441;-63
2022/06/22 14:08:58;;;;;;;18.10;16.53;;;25.00;99.90;;;;;;5015425;28;20444;-64
2022/06/22 14:11:32;;;;;;;17.93;15.30;;;25.00;99.90;;;;;;5015243;28;20468;-64
2022/06/22 14:14:04;;;;;;;16.03;14.70;;;25.10;99.90;;;;;;5015627;28;20481;-63
2022/06/22 14:16:37;;;;;;;18.43;16.60;;;25.20;99.90;;;;;;5015424;28;20972;-64
2022/06/22 14:19:09;;;;;;;16.60;15.30;;;25.20;99.90;;;;;;5015969;28;20461;-64
2022/06/22 14:21:42;;;;;;;17.10;15.63;;;25.20;99.90;;;;;;5015220;28;20476;-64
2022/06/22 14:24:17;;;;;;;16.40;15.00;;;25.30;99.90;;;;;;5015200;28;20529;-64
2022/06/22 14:27:12;;;;;;;16.80;12.97;;;25.30;99.90;;;;;;5015117;28;20447;-64
2022/06/22 14:30:03;;;;;;;14.17;12.73;;;25.20;99.90;;;;;;5015149;28;20448;-64
2022/06/22 14:32:48;;;;;;;15.10;13.63;;;25.30;99.90;;;;;;5014576;28;20481;-64
2022/06/22 14:35:32;;;;;;;13.97;10.80;;;25.40;99.90;;;;;;5015141;28;20441;-63
2022/06/22 14:38:12;;;;;;;14.07;12.87;;;25.50;99.90;;;;;;5014904;28;20556;-64
2022/06/22 14:40:49;;;;;;;14.07;12.67;;;25.70;99.90;;;;;;5014552;28;20479;-63
2022/06/22 14:43:21;;;;;;;15.07;13.53;;;25.90;99.90;;;;;;5014910;28;20444;-63
2022/06/22 14:45:51;;;;;;;14.63;13.43;;;26.00;99.90;;;;;;5014812;28;20452;-63
2022/06/22 14:48:28;;;;;;;13.83;12.47;;;25.90;99.90;;;;;;5014755;28;20524;-63
2022/06/22 14:51:08;;;;;;;14.33;11.73;;;25.90;99.90;;;;;;5014709;28;20538;-64
2022/06/22 14:53:50;;;;;;;13.10;11.90;;;25.90;99.90;;;;;;5014437;28;20912;-64
2022/06/22 14:56:25;;;;;;;14.77;13.37;;;25.90;99.90;;;;;;5015461;28;20457;-64
2022/06/22 14:59:00;;;;;;;13.53;12.33;;;26.00;99.90;;;;;;5014638;28;20461;-64
2022/06/22 15:01:30;;;;;;;14.10;12.73;;;26.00;99.90;;;;;;5014224;28;20484;-64
2022/06/22 15:04:04;;;;;;;14.13;12.63;;;26.10;99.90;;;;;;5014677;28;20872;-64
2022/06/22 15:06:58;;;;;;;13.90;12.50;;;26.20;99.90;;;;;;5014076;28;20861;-64
2022/06/22 15:09:31;;;;;;;14.47;12.97;;;26.30;99.90;;;;;;5014382;28;20437;-64
2022/06/22 15:15:01;;;;;;;14.10;12.90;;;26.10;99.90;;;;;;5014053;28;20415;-64
2022/06/22 15:17:33;;;;;;;18.83;13.60;;;26.00;99.90;;;;;;5014411;28;20443;-64
2022/06/22 15:20:08;;;;;;;15.27;12.60;;;26.00;99.90;;;;;;5014280;28;20551;-64
2022/06/22 15:22:42;;;;;;;15.60;14.10;;;25.90;99.90;;;;;;5014257;28;20845;-64
2022/06/22 15:25:19;;;;;;;15.13;12.80;;;25.80;99.90;;;;;;5014744;28;20445;-64
2022/06/22 15:27:58;;;;;;;18.37;12.40;;;25.80;99.90;;;;;;5014188;28;20441;-64
2022/06/22 15:30:32;;;;;;;14.73;12.63;;;25.70;99.90;;;;;;5014073;28;20441;-64
2022/06/22 15:33:04;;;;;;;14.90;13.30;;;25.60;99.90;;;;;;5014210;28;20436;-64
2022/06/22 15:35:40;;;;;;;14.13;12.53;;;25.50;99.90;;;;;;5014064;28;20455;-64
2022/06/22 15:38:14;;;;;;;14.63;12.37;;;25.50;99.90;;;;;;5013971;28;20437;-64
2022/06/22 15:40:53;;;;;;;12.60;11.60;;;25.40;99.90;;;;;;5013798;28;20472;-64
2022/06/22 15:43:54;;;;;;;11.30;10.17;;;25.30;99.90;;;;;;5013978;28;20506;-64
2022/06/22 15:46:27;;;;;;;12.23;11.03;;;25.30;99.90;;;;;;5013887;28;20461;-64
2022/06/22 15:48:58;;;;;;;13.07;11.80;;;25.30;99.90;;;;;;5014064;28;20433;-64
2022/06/22 15:51:34;;;;;;;14.93;10.43;;;25.40;99.90;;;;;;5014344;28;20484;-64
2022/06/22 15:54:11;;;;;;;10.67;8.43;;;25.40;99.90;;;;;;5013531;28;20924;-64
2022/06/22 15:56:47;;;;;;;13.37;9.53;;;25.30;99.90;;;;;;5013856;28;21020;-64
2022/06/22 15:59:22;;;;;;;13.47;10.60;;;25.20;99.90;;;;;;5013886;28;20464;-64
2022/06/22 16:01:55;;;;;;;11.70;8.80;;;25.10;99.90;;;;;;5013397;28;20559;-64
2022/06/22 16:04:33;;;;;;;12.13;9.27;;;25.00;99.90;;;;;;5013709;28;20441;-64
2022/06/22 16:07:08;;;;;;;13.63;8.70;;;25.00;99.90;;;;;;5013437;28;20908;-64
2022/06/22 16:09:45;;;;;;;11.03;8.70;;;25.00;99.90;;;;;;5014149;28;20432;-64
2022/06/22 16:15:19;;;;;;;13.40;9.27;;;25.00;99.90;;;;;;4958286;28;20446;-64
2022/06/22 16:17:55;;;;;;;12.90;8.97;;;24.90;99.90;;;;;;5013724;28;20453;-64
2022/06/22 16:20:30;;;;;;;11.77;9.10;;;24.70;99.90;;;;;;5013548;28;20468;-64
2022/06/22 16:23:04;;;;;;;17.40;10.60;;;24.60;99.90;;;;;;5013654;28;20512;-64
2022/06/22 16:25:48;;;;;;;12.77;9.33;;;24.50;99.90;;;;;;5015908;28;20441;-64
2022/06/22 16:28:25;;;;;;;11.80;10.10;;;24.40;99.90;;;;;;5017405;28;20448;-64
2022/06/22 16:31:10;;;;;;;12.47;10.50;;;24.40;99.90;;;;;;5017367;28;20534;-64
2022/06/22 16:33:46;;;;;;;12.63;11.03;;;24.30;99.90;;;;;;5017318;28;20448;-64
2022/06/22 16:36:21;;;;;;;14.10;12.60;;;24.20;99.90;;;;;;5017243;28;20441;-64
2022/06/22 16:38:58;;;;;;;16.97;13.30;;;24.20;99.90;;;;;;5017643;28;20465;-63
2022/06/22 16:41:35;;;;;;;21.57;16.07;;;23.90;99.90;;;;;;5016927;28;20472;-63
2022/06/22 16:44:09;;;;;;;18.40;16.60;;;23.80;99.90;;;;;;5017040;28;20437;-63
2022/06/22 16:46:48;;;;;;;19.03;14.80;;;23.60;99.90;;;;;;5016866;28;20849;-63
2022/06/22 16:49:21;;;;;;;24.40;17.10;;;23.50;99.90;;;;;;5016666;28;20436;-63
2022/06/22 16:51:59;;;;;;;17.67;15.73;;;23.40;99.90;;;;;;5016309;28;20473;-64
2022/06/22 16:54:31;;;;;;;18.03;15.43;;;23.20;99.90;;;;;;5016522;28;20495;-64
2022/06/22 16:57:01;;;;;;;20.00;14.80;;;23.00;99.90;;;;;;5017256;28;20816;-64
2022/06/22 16:59:31;;;;;;;21.40;15.30;;;22.80;99.90;;;;;;5016319;28;20461;-63
2022/06/22 17:02:02;;;;;;;19.10;14.93;;;22.70;99.90;;;;;;5016253;28;20855;-64
2022/06/22 17:04:42;;;;;;;26.10;17.70;;;22.40;99.90;;;;;;5016362;28;20900;-63
2022/06/22 17:07:23;;;;;;;27.83;20.27;;;22.30;99.90;;;;;;5016635;28;20437;-63
2022/06/22 17:10:02;;;;;;;22.73;20.30;;;22.10;99.90;;;;;;5016550;28;20464;-63
2022/06/22 17:12:36;;;;;;;21.00;18.73;;;22.10;99.90;;;;;;5016607;28;20476;-63
2022/06/22 17:15:05;;;;;;;26.27;19.60;;;22.00;99.90;;;;;;5016479;28;20443;-63
2022/06/22 17:17:44;;;;;;;22.20;19.57;;;21.90;99.90;;;;;;5016357;28;20459;-63
2022/06/22 17:20:16;;;;;;;21.23;18.60;;;21.80;99.90;;;;;;5016363;28;20464;-63
2022/06/22 17:22:55;;;;;;;23.03;15.67;;;21.70;99.90;;;;;;5016317;28;20437;-63
2022/06/22 17:25:39;;;;;;;21.53;17.30;;;21.70;99.90;;;;;;5016318;28;20441;-63
2022/06/22 17:28:11;;;;;;;20.87;16.90;;;21.70;99.90;;;;;;5016177;28;20790;-63
2022/06/22 17:30:43;;;;;;;22.47;18.13;;;21.70;99.90;;;;;;5016171;28;20472;-64
2022/06/22 17:33:18;;;;;;;23.70;17.10;;;21.60;99.90;;;;;;5016102;28;20441;-63
2022/06/22 17:35:58;;;;;;;24.87;19.93;;;21.70;99.90;;;;;;5021473;28;20447;-64
2022/06/22 17:38:40;;;;;;;19.80;17.80;;;21.60;99.90;;;;;;5021614;28;20862;-64
2022/06/22 17:41:16;;;;;;;20.10;18.30;;;21.60;99.90;;;;;;5016055;28;20476;-63
2022/06/22 17:43:50;;;;;;;20.83;18.67;;;21.70;99.90;;;;;;5016672;28;20754;-63
2022/06/22 17:46:19;;;;;;;27.23;20.80;;;21.70;99.90;;;;;;5015760;28;20444;-63
2022/06/22 17:48:51;;;;;;;23.03;20.63;;;21.70;99.90;;;;;;5015754;28;20459;-63
2022/06/22 17:51:32;;;;;;;24.20;21.60;;;21.70;99.90;;;;;;5015301;28;21037;-63
2022/06/22 17:54:10;;;;;;;26.33;23.73;;;21.70;99.90;;;;;;5015621;28;20783;-63